Minot Air Force Base Minot US
ICAO: KMIB
IATA: MIB
Category: Medium
Scheduled Services: No

Elevation: 1667 ft
TransAlt. 18000 ft.

Airport Communications:
APP:119.6
ATIS:27.88
CLNC DEL:32.62
DEP:119.6
GND:134
PMSV METRO:34.25
COMD POST:32.1
PTD:37.22
TWR:120.65

KMIB Zoom In..

If you have problems with the map follow the link
https://www.worldairports.se/pages/airport.php?
ICAO=KMIB

Runways:

(A) RW 11 length 13197 ft width 300 ft
ILS 109.90 / hdg 115

(B) RW 29 length 13197 ft width 300 ft
ILS 109.90 / hdg 295

Location; KMIB
Day. 27 / Time. 00.56 Zulu
* Altimeter: 30.01
* Temperature: -06° c. -21.2°f.
* Wind from: 360° Speed 04 kn.
Dewpoint: -08° c.
Visibility: 10 Statute Miles.
Clouds: Scattered 900 ft.
Clouds: Overcast 2300 ft.

KMIB 270056Z AUTO 36004KT 10SM SCT009 OVC023 M06/M08 A3001 RMK AO2 SLP195 T10621080 $


Wind From 360°
Speed 04 kn.

 
 
jpsmedia worldairports.se 2020   terms of use